createdAt,value
2022-12-01T00:02:07.547Z,49.17
2022-12-01T00:04:34.174Z,53.37
2022-12-01T00:07:00.728Z,51.20
2022-12-01T00:09:46.307Z,51.17
2022-12-01T00:12:13.072Z,47.60
2022-12-01T00:14:39.675Z,46.77
2022-12-01T00:17:07.286Z,52.83
2022-12-01T00:19:33.892Z,47.73
2022-12-01T00:22:00.515Z,45.83
2022-12-01T00:24:27.091Z,50.80
2022-12-01T00:26:53.717Z,47.13
2022-12-01T00:29:20.270Z,47.77
2022-12-01T00:31:49.537Z,51.60
2022-12-01T00:34:23.335Z,51.47
2022-12-01T00:36:50.245Z,50.30
2022-12-01T00:39:16.822Z,50.53
2022-12-01T00:41:43.394Z,48.90
2022-12-01T00:44:09.994Z,48.30
2022-12-01T00:46:36.738Z,51.87
2022-12-01T00:49:03.750Z,47.23
2022-12-01T00:51:30.475Z,46.67
2022-12-01T00:53:57.427Z,46.33
2022-12-01T00:56:24.013Z,45.07
2022-12-01T00:58:50.611Z,46.20
2022-12-01T01:01:17.291Z,41.80
2022-12-01T01:03:44.017Z,50.43
2022-12-01T01:06:11.577Z,49.40
2022-12-01T01:08:38.661Z,50.17
2022-12-01T01:11:06.216Z,52.77
2022-12-01T01:13:33.259Z,57.10
2022-12-01T01:16:01.626Z,50.73
2022-12-01T01:18:28.219Z,54.50
2022-12-01T01:20:55.783Z,55.37
2022-12-01T01:23:22.388Z,57.03
2022-12-01T01:25:49.593Z,60.97
2022-12-01T01:28:16.138Z,56.57
2022-12-01T01:30:42.874Z,60.07
2022-12-01T01:33:10.086Z,59.30
2022-12-01T01:35:36.763Z,61.37
2022-12-01T01:38:03.354Z,60.23
2022-12-01T01:40:29.922Z,60.30
2022-12-01T01:42:56.491Z,58.93
2022-12-01T01:45:25.158Z,56.63
2022-12-01T01:47:52.705Z,60.67
2022-12-01T01:50:20.591Z,55.97
2022-12-01T01:52:53.155Z,57.40
2022-12-01T01:55:19.796Z,57.03
2022-12-01T01:57:46.646Z,57.30
2022-12-01T02:00:14.858Z,53.37
2022-12-01T02:02:44.154Z,53.90
2022-12-01T02:05:19.183Z,58.00
2022-12-01T02:07:46.834Z,57.70
2022-12-01T02:10:14.307Z,57.70
2022-12-01T02:12:50.468Z,59.20
2022-12-01T02:15:20.808Z,60.73
2022-12-01T02:17:53.199Z,59.20
2022-12-01T02:20:26.359Z,56.97
2022-12-01T02:23:08.202Z,62.03
2022-12-01T02:25:37.797Z,62.63
2022-12-01T02:28:07.497Z,63.10
2022-12-01T02:30:37.155Z,66.87
2022-12-01T02:33:11.814Z,66.37
2022-12-01T02:35:46.060Z,64.87
2022-12-01T02:38:45.018Z,71.73
2022-12-01T02:41:11.547Z,78.83
2022-12-01T02:43:47.995Z,74.57
2022-12-01T02:46:23.652Z,79.07
2022-12-01T02:48:52.455Z,70.83
2022-12-01T02:51:29.034Z,78.00
2022-12-01T02:53:56.667Z,80.27
2022-12-01T02:56:23.878Z,75.47
2022-12-01T02:58:50.485Z,80.10
2022-12-01T03:01:27.567Z,79.83
2022-12-01T03:04:09.622Z,83.10
2022-12-01T03:06:51.476Z,82.93
2022-12-01T03:09:27.296Z,82.23
2022-12-01T03:12:03.783Z,91.03
2022-12-01T03:14:30.370Z,83.70
2022-12-01T03:16:58.666Z,89.27
2022-12-01T03:19:40.178Z,87.20
2022-12-01T03:22:11.658Z,86.73
2022-12-01T03:24:38.816Z,91.20
2022-12-01T03:27:06.006Z,90.10
2022-12-01T03:29:39.869Z,95.33
2022-12-01T03:32:13.064Z,87.77
2022-12-01T03:34:47.151Z,103.50
2022-12-01T03:37:18.166Z,98.87
2022-12-01T03:39:46.104Z,91.30
2022-12-01T03:42:20.714Z,96.60
2022-12-01T03:44:49.507Z,100.47
2022-12-01T03:47:18.129Z,112.83
2022-12-01T03:49:46.043Z,86.50
2022-12-01T03:52:26.398Z,106.70
2022-12-01T03:54:59.419Z,101.97
2022-12-01T03:57:29.477Z,107.17
2022-12-01T03:59:56.527Z,112.40
2022-12-01T04:02:27.591Z,103.43
2022-12-01T04:04:54.324Z,103.77
2022-12-01T04:07:21.559Z,107.83
2022-12-01T04:09:48.575Z,103.77
2022-12-01T04:12:30.797Z,97.63
2022-12-01T04:14:58.230Z,107.47
2022-12-01T04:17:25.182Z,93.20
2022-12-01T04:19:51.974Z,102.30
2022-12-01T04:22:18.607Z,99.63
2022-12-01T04:24:45.304Z,96.93
2022-12-01T04:27:12.350Z,88.43
2022-12-01T04:29:38.917Z,102.07
2022-12-01T04:32:05.594Z,96.07
2022-12-01T04:34:32.278Z,89.40
2022-12-01T04:36:58.857Z,95.40
2022-12-01T04:39:25.400Z,90.07
2022-12-01T04:41:51.930Z,100.53
2022-12-01T04:44:18.655Z,109.27
2022-12-01T04:46:45.245Z,97.10
2022-12-01T04:49:11.954Z,93.30
2022-12-01T04:51:38.525Z,84.57
2022-12-01T04:54:06.068Z,91.40
2022-12-01T04:56:33.567Z,90.57
2022-12-01T04:59:00.662Z,84.97
2022-12-01T05:01:27.694Z,97.63
2022-12-01T05:03:54.380Z,91.73
2022-12-01T05:06:25.516Z,82.57
2022-12-01T05:08:54.389Z,89.27
2022-12-01T05:11:21.033Z,86.63
2022-12-01T05:13:48.165Z,84.80
2022-12-01T05:16:14.752Z,97.77
2022-12-01T05:18:41.663Z,95.70
2022-12-01T05:21:09.189Z,95.53
2022-12-01T05:23:36.668Z,88.97
2022-12-01T05:26:04.155Z,84.30
2022-12-01T05:28:31.073Z,92.77
2022-12-01T05:30:57.726Z,99.27
2022-12-01T05:33:25.015Z,80.37
2022-12-01T05:35:51.737Z,81.93
2022-12-01T05:38:18.431Z,79.40
2022-12-01T05:40:52.334Z,85.43
2022-12-01T05:43:22.654Z,73.60
2022-12-01T05:45:51.931Z,68.50
2022-12-01T05:48:18.719Z,68.83
2022-12-01T05:50:45.459Z,73.10
2022-12-01T05:53:13.962Z,71.17
2022-12-01T05:55:40.651Z,73.37
2022-12-01T05:58:07.631Z,74.03
2022-12-01T06:00:34.562Z,70.03
2022-12-01T06:03:02.001Z,70.53
2022-12-01T06:05:28.466Z,63.63
2022-12-01T06:07:55.031Z,65.20
2022-12-01T06:10:21.848Z,57.80
2022-12-01T06:12:48.431Z,57.53
2022-12-01T06:15:15.033Z,59.63
2022-12-01T06:17:41.536Z,56.60
2022-12-01T06:20:08.689Z,55.90
2022-12-01T06:22:35.234Z,57.27
2022-12-01T06:25:01.762Z,55.57
2022-12-01T06:27:28.298Z,53.87
2022-12-01T06:29:54.927Z,52.13
2022-12-01T06:32:21.475Z,57.80
2022-12-01T06:34:48.184Z,52.30
2022-12-01T06:37:15.777Z,54.10
2022-12-01T06:39:42.456Z,53.60
2022-12-01T06:42:09.138Z,51.30
2022-12-01T06:44:35.763Z,52.57
2022-12-01T06:47:02.402Z,55.37
2022-12-01T06:49:29.183Z,50.87
2022-12-01T06:51:55.735Z,52.00
2022-12-01T06:54:22.319Z,51.80
2022-12-01T06:56:49.306Z,55.07
2022-12-01T06:59:15.941Z,52.00
2022-12-01T07:01:42.874Z,52.23
2022-12-01T07:04:09.538Z,46.77
2022-12-01T07:06:35.991Z,51.30
2022-12-01T07:09:02.557Z,51.17
2022-12-01T07:11:32.348Z,52.73
2022-12-01T07:13:59.030Z,49.03
2022-12-01T07:16:25.688Z,50.70
2022-12-01T07:18:53.001Z,43.13
2022-12-01T07:21:19.555Z,52.37
2022-12-01T07:23:46.132Z,53.27
2022-12-01T07:26:14.291Z,55.50
2022-12-01T07:28:41.290Z,54.87
2022-12-01T07:31:09.131Z,51.60
2022-12-01T07:33:36.051Z,53.30
2022-12-01T07:36:03.142Z,52.67
2022-12-01T07:38:30.111Z,48.97
2022-12-01T07:41:01.446Z,50.67
2022-12-01T07:43:29.171Z,49.90
2022-12-01T07:45:55.753Z,53.07
2022-12-01T07:48:22.851Z,50.87
2022-12-01T07:50:49.393Z,52.50
2022-12-01T07:53:15.894Z,52.13
2022-12-01T07:55:47.609Z,49.10
2022-12-01T07:58:14.316Z,49.27
2022-12-01T08:00:41.006Z,50.57
2022-12-01T08:03:07.524Z,46.67
2022-12-01T08:05:34.242Z,47.40
2022-12-01T08:08:00.868Z,48.90
2022-12-01T08:10:27.411Z,43.60
2022-12-01T08:12:54.143Z,49.23
2022-12-01T08:15:20.734Z,44.93
2022-12-01T08:17:47.521Z,50.17
2022-12-01T08:20:18.422Z,49.97
2022-12-01T08:22:48.928Z,47.63
2022-12-01T08:25:15.697Z,49.07
2022-12-01T08:27:42.277Z,46.20
2022-12-01T08:30:09.122Z,46.40
2022-12-01T08:32:35.630Z,44.80
2022-12-01T08:35:02.231Z,47.80
2022-12-01T08:37:28.835Z,49.53
2022-12-01T08:39:55.296Z,42.63
2022-12-01T08:42:21.862Z,47.97
2022-12-01T08:44:48.460Z,44.80
2022-12-01T08:47:18.755Z,40.73
2022-12-01T08:49:45.624Z,43.43
2022-12-01T08:52:12.153Z,44.00
2022-12-01T08:54:38.659Z,42.33
2022-12-01T08:57:05.468Z,50.20
2022-12-01T08:59:31.930Z,44.43
2022-12-01T09:02:00.463Z,43.53
2022-12-01T09:04:30.301Z,43.07
2022-12-01T09:06:57.686Z,42.77
2022-12-01T09:09:25.767Z,45.53
2022-12-01T09:11:52.442Z,43.43
2022-12-01T09:14:19.694Z,45.40
2022-12-01T09:16:46.990Z,45.87
2022-12-01T09:19:15.930Z,42.87
2022-12-01T09:21:47.905Z,44.07
2022-12-01T09:24:15.255Z,42.83
2022-12-01T09:26:42.361Z,44.20
2022-12-01T09:29:09.888Z,46.13
2022-12-01T09:31:36.915Z,44.60
2022-12-01T09:34:04.762Z,47.10
2022-12-01T09:36:32.052Z,43.67
2022-12-01T09:38:58.808Z,43.67
2022-12-01T09:41:38.962Z,44.67
2022-12-01T09:44:24.473Z,47.07
2022-12-01T09:46:57.980Z,49.30
2022-12-01T09:49:46.361Z,47.67
2022-12-01T09:52:14.736Z,46.90
2022-12-01T09:54:41.365Z,51.60
2022-12-01T09:57:14.573Z,50.30
2022-12-01T09:59:43.139Z,48.60
2022-12-01T10:02:28.620Z,50.37
2022-12-01T10:04:56.837Z,56.50
2022-12-01T10:07:29.594Z,54.40
2022-12-01T10:10:01.032Z,56.87
2022-12-01T10:12:32.599Z,57.07
2022-12-01T10:15:02.308Z,54.57
2022-12-01T10:17:44.072Z,53.40
2022-12-01T10:20:13.959Z,57.27
2022-12-01T10:22:40.455Z,58.57
2022-12-01T10:25:13.692Z,57.50
2022-12-01T10:28:09.625Z,60.00
2022-12-01T10:30:40.473Z,57.87
2022-12-01T10:33:24.289Z,56.93
2022-12-01T10:35:51.045Z,61.67
2022-12-01T10:38:29.314Z,65.40
2022-12-01T10:40:58.707Z,61.90
2022-12-01T10:43:38.060Z,60.90
2022-12-01T10:46:16.945Z,61.80
2022-12-01T10:48:56.997Z,62.07
2022-12-01T10:51:23.894Z,61.77
2022-12-01T10:53:50.754Z,64.80
2022-12-01T10:56:21.262Z,66.63
2022-12-01T10:58:48.050Z,62.40
2022-12-01T11:01:17.101Z,63.97
2022-12-01T11:03:43.858Z,64.07
2022-12-01T11:06:10.674Z,64.10
2022-12-01T11:08:41.520Z,61.17
2022-12-01T11:11:27.068Z,64.03
2022-12-01T11:13:54.293Z,69.43
2022-12-01T11:16:41.237Z,67.60
2022-12-01T11:19:28.475Z,70.20
2022-12-01T11:21:56.580Z,65.83
2022-12-01T11:24:26.953Z,65.37
2022-12-01T11:26:53.509Z,65.17
2022-12-01T11:29:36.227Z,66.80
2022-12-01T11:32:12.707Z,62.90
2022-12-01T11:34:39.270Z,65.30
2022-12-01T11:37:15.617Z,64.30
2022-12-01T11:39:43.909Z,66.10
2022-12-01T11:42:13.492Z,58.10
2022-12-01T11:44:52.045Z,65.97
2022-12-01T11:47:23.665Z,66.13
2022-12-01T11:50:01.599Z,65.17
2022-12-01T11:52:30.630Z,72.03
2022-12-01T11:55:06.918Z,63.80
2022-12-01T11:57:37.054Z,69.83
2022-12-01T12:00:36.150Z,66.60
2022-12-01T12:03:08.548Z,66.20
2022-12-01T12:05:35.052Z,67.10
2022-12-01T12:08:13.844Z,65.23
2022-12-01T12:10:40.313Z,56.90
2022-12-01T12:13:16.387Z,59.67
2022-12-01T12:16:01.775Z,64.53
2022-12-01T12:18:44.438Z,61.63
2022-12-01T12:21:29.742Z,61.73
2022-12-01T12:24:34.750Z,61.90
2022-12-01T12:27:08.724Z,62.60
2022-12-01T12:29:35.134Z,60.87
2022-12-01T12:32:26.680Z,64.40
2022-12-01T12:35:05.965Z,62.63
2022-12-01T12:37:38.696Z,58.97
2022-12-01T12:40:08.231Z,59.43
2022-12-01T12:42:48.134Z,57.47
2022-12-01T12:45:23.823Z,59.40
2022-12-01T12:47:50.324Z,58.67
2022-12-01T12:50:37.258Z,63.20
2022-12-01T12:53:10.390Z,63.60
2022-12-01T12:55:43.214Z,63.03
2022-12-01T12:58:22.352Z,64.70
2022-12-01T13:01:01.352Z,66.20
2022-12-01T13:03:38.934Z,59.30
2022-12-01T13:06:09.047Z,60.87
2022-12-01T13:08:51.008Z,61.23
2022-12-01T13:11:20.616Z,59.53
2022-12-01T13:14:07.646Z,57.03
2022-12-01T13:16:36.778Z,46.10
2022-12-01T13:19:18.616Z,39.87
2022-12-01T13:21:46.602Z,37.70
2022-12-01T13:24:19.875Z,34.30
2022-12-01T13:26:50.932Z,36.37
2022-12-01T13:29:18.572Z,34.53
2022-12-01T13:31:46.681Z,34.03
2022-12-01T13:34:28.247Z,35.60
2022-12-01T13:36:55.438Z,36.03
2022-12-01T13:39:36.111Z,34.80
2022-12-01T13:42:04.945Z,35.47
2022-12-01T13:44:40.398Z,37.80
2022-12-01T13:47:09.951Z,31.27
2022-12-01T13:49:42.209Z,32.80
2022-12-01T13:52:14.868Z,31.10
2022-12-01T13:54:58.747Z,30.73
2022-12-01T13:57:26.176Z,31.57
2022-12-01T13:59:58.893Z,29.73
2022-12-01T14:02:35.449Z,35.70
2022-12-01T14:05:20.613Z,35.80
2022-12-01T14:07:48.423Z,35.67
2022-12-01T14:10:31.486Z,34.50
2022-12-01T14:13:01.009Z,36.77
2022-12-01T14:15:33.790Z,34.37
2022-12-01T14:18:21.310Z,35.57
2022-12-01T14:20:48.604Z,36.47
2022-12-01T14:23:28.973Z,35.50
2022-12-01T14:25:58.586Z,37.30
2022-12-01T14:28:43.854Z,37.13
2022-12-01T14:31:10.537Z,38.30
2022-12-01T14:33:44.882Z,40.13
2022-12-01T14:36:23.756Z,37.20
2022-12-01T14:38:59.536Z,38.97
2022-12-01T14:41:27.813Z,38.93
2022-12-01T14:44:06.591Z,40.20
2022-12-01T14:46:38.842Z,40.30
2022-12-01T14:49:05.941Z,39.20
2022-12-01T14:51:34.936Z,41.40
2022-12-01T14:54:04.056Z,41.93
2022-12-01T14:56:32.458Z,39.80
2022-12-01T14:59:00.416Z,42.60
2022-12-01T15:01:34.857Z,43.90
2022-12-01T15:04:02.340Z,45.57
2022-12-01T15:06:29.883Z,44.57
2022-12-01T15:09:32.285Z,43.53
2022-12-01T15:11:55.893Z,45.10
2022-12-01T15:14:30.744Z,46.73
2022-12-01T15:16:57.882Z,46.80
2022-12-01T15:19:38.485Z,48.50
2022-12-01T15:22:16.405Z,47.60
2022-12-01T15:24:45.535Z,46.30
2022-12-01T15:27:29.084Z,51.23
2022-12-01T15:29:56.581Z,45.10
2022-12-01T15:32:23.709Z,45.30
2022-12-01T15:34:54.358Z,50.03
2022-12-01T15:37:21.946Z,54.00
2022-12-01T15:39:49.656Z,51.90
2022-12-01T15:42:35.384Z,50.43
2022-12-01T15:45:17.320Z,55.77
2022-12-01T15:47:45.290Z,53.70
2022-12-01T15:50:31.268Z,52.00
2022-12-01T15:52:58.806Z,52.70
2022-12-01T15:55:30.555Z,57.27
2022-12-01T15:57:57.859Z,56.73
2022-12-01T16:00:24.635Z,55.47
2022-12-01T16:02:52.806Z,59.47
2022-12-01T16:05:22.109Z,55.50
2022-12-01T16:10:36.521Z,57.70
2022-12-01T16:13:22.084Z,56.50
2022-12-01T16:15:48.665Z,53.77
2022-12-01T16:18:27.750Z,56.13
2022-12-01T16:21:01.575Z,60.00
2022-12-01T16:23:28.439Z,50.53
2022-12-01T16:25:59.148Z,52.97
2022-12-01T16:28:31.875Z,52.17
2022-12-01T16:30:58.698Z,52.00
2022-12-01T16:33:26.185Z,52.93
2022-12-01T16:35:52.886Z,52.40
2022-12-01T16:38:21.981Z,52.40
2022-12-01T16:40:50.030Z,52.67
2022-12-01T16:43:24.013Z,51.97
2022-12-01T16:45:57.555Z,48.43
2022-12-01T16:48:24.886Z,51.90
2022-12-01T16:50:53.641Z,51.67
2022-12-01T16:53:20.521Z,55.90
2022-12-01T16:55:54.345Z,52.30
2022-12-01T16:58:21.240Z,52.13
2022-12-01T17:00:53.890Z,52.77
2022-12-01T17:03:21.960Z,54.63
2022-12-01T17:05:48.988Z,50.00
2022-12-01T17:08:16.070Z,51.00
2022-12-01T17:10:43.722Z,51.20
2022-12-01T17:13:10.401Z,49.03
2022-12-01T17:15:41.240Z,52.60
2022-12-01T17:18:07.833Z,53.43
2022-12-01T17:20:34.359Z,52.00
2022-12-01T17:23:01.080Z,51.50
2022-12-01T17:25:27.633Z,49.80
2022-12-01T17:27:54.315Z,51.33
2022-12-01T17:30:21.781Z,52.63
2022-12-01T17:32:48.574Z,50.07
2022-12-01T17:35:15.534Z,49.70
2022-12-01T17:37:42.426Z,51.73
2022-12-01T17:40:11.120Z,49.93
2022-12-01T17:42:37.748Z,53.60
2022-12-01T17:45:04.722Z,53.03
2022-12-01T17:47:31.352Z,55.40
2022-12-01T17:49:57.962Z,50.13
2022-12-01T17:52:28.454Z,56.27
2022-12-01T17:54:56.381Z,59.40
2022-12-01T17:57:24.171Z,54.47
2022-12-01T17:59:50.861Z,57.97
2022-12-01T18:02:17.559Z,56.17
2022-12-01T18:04:44.236Z,54.47
2022-12-01T18:07:11.450Z,56.97
2022-12-01T18:09:38.277Z,53.23
2022-12-01T18:12:05.071Z,59.00
2022-12-01T18:14:33.615Z,57.97
2022-12-01T18:17:00.532Z,58.17
2022-12-01T18:19:27.224Z,61.13
2022-12-01T18:21:53.775Z,58.13
2022-12-01T18:24:20.438Z,58.07
2022-12-01T18:26:48.019Z,61.50
2022-12-01T18:29:16.116Z,59.10
2022-12-01T18:31:43.083Z,55.27
2022-12-01T18:34:10.177Z,60.43
2022-12-01T18:36:39.029Z,57.43
2022-12-01T18:39:07.691Z,58.43
2022-12-01T18:41:35.212Z,62.80
2022-12-01T18:44:02.005Z,64.20
2022-12-01T18:46:29.050Z,62.40
2022-12-01T18:49:02.945Z,64.00
2022-12-01T18:51:30.640Z,60.00
2022-12-01T18:53:57.997Z,67.37
2022-12-01T18:56:24.820Z,62.90
2022-12-01T18:58:58.600Z,65.77
2022-12-01T19:01:26.517Z,63.53
2022-12-01T19:03:57.003Z,65.03
2022-12-01T19:06:24.570Z,64.37
2022-12-01T19:08:51.808Z,68.90
2022-12-01T19:11:18.771Z,64.03
2022-12-01T19:13:45.730Z,67.03
2022-12-01T19:16:13.834Z,67.67
2022-12-01T19:18:40.641Z,67.47
2022-12-01T19:21:09.164Z,63.33
2022-12-01T19:23:36.057Z,70.00
2022-12-01T19:26:07.226Z,66.27
2022-12-01T19:28:34.825Z,64.37
2022-12-01T19:31:05.398Z,64.33
2022-12-01T19:33:32.276Z,71.67
2022-12-01T19:36:04.162Z,67.40
2022-12-01T19:38:30.681Z,64.43
2022-12-01T19:40:57.362Z,66.50
2022-12-01T19:43:24.040Z,63.60
2022-12-01T19:45:50.901Z,65.37
2022-12-01T19:48:17.694Z,69.17
2022-12-01T19:50:44.382Z,66.30
2022-12-01T19:53:11.032Z,68.13
2022-12-01T19:55:38.022Z,64.13
2022-12-01T19:58:05.268Z,64.93
2022-12-01T20:00:32.571Z,66.43
2022-12-01T20:02:59.818Z,69.40
2022-12-01T20:05:26.391Z,66.57
2022-12-01T20:07:53.267Z,66.27
2022-12-01T20:10:20.507Z,65.40
2022-12-01T20:12:47.539Z,65.83
2022-12-01T20:15:14.597Z,65.07
2022-12-01T20:17:41.505Z,67.63
2022-12-01T20:20:09.065Z,69.90
2022-12-01T20:22:35.729Z,65.60
2022-12-01T20:25:03.465Z,69.27
2022-12-01T20:27:30.104Z,72.57
2022-12-01T20:29:56.744Z,70.50
2022-12-01T20:32:24.019Z,69.87
2022-12-01T20:34:50.879Z,73.63
2022-12-01T20:37:17.840Z,73.20
2022-12-01T20:39:44.533Z,80.20
2022-12-01T20:42:11.336Z,73.17
2022-12-01T20:44:38.150Z,75.43
2022-12-01T20:47:04.780Z,73.30
2022-12-01T20:49:31.409Z,76.53
2022-12-01T20:51:57.963Z,74.30
2022-12-01T20:54:29.163Z,78.10
2022-12-01T20:56:56.795Z,68.60
2022-12-01T20:59:23.752Z,72.67
2022-12-01T21:01:50.546Z,66.67
2022-12-01T21:04:17.640Z,64.20
2022-12-01T21:06:44.461Z,73.27
2022-12-01T21:09:12.403Z,64.17
2022-12-01T21:12:04.386Z,66.60
2022-12-01T21:14:36.845Z,61.37
2022-12-01T21:17:24.173Z,58.57
2022-12-01T21:20:21.654Z,62.43
2022-12-01T21:22:49.598Z,55.67
2022-12-01T21:25:21.167Z,56.90
2022-12-01T21:27:48.000Z,60.93
2022-12-01T21:30:17.077Z,58.60
2022-12-01T21:32:44.605Z,57.90
2022-12-01T21:35:14.451Z,59.37
2022-12-01T21:37:41.091Z,57.10
2022-12-01T21:40:14.843Z,56.10
2022-12-01T21:42:41.539Z,61.13
2022-12-01T21:45:17.876Z,61.30
2022-12-01T21:47:44.583Z,61.20
2022-12-01T21:50:17.652Z,57.13
2022-12-01T21:52:44.702Z,53.23
2022-12-01T21:55:13.964Z,59.33
2022-12-01T21:57:47.873Z,52.77
2022-12-01T22:00:28.475Z,54.40
2022-12-01T22:03:04.264Z,48.23
2022-12-01T22:05:38.150Z,52.90
2022-12-01T22:08:14.198Z,41.70
2022-12-01T22:10:52.504Z,46.70
2022-12-01T22:13:19.678Z,42.60
2022-12-01T22:15:46.233Z,43.97
2022-12-01T22:18:19.019Z,38.27
2022-12-01T22:20:45.595Z,41.33
2022-12-01T22:23:12.824Z,39.43
2022-12-01T22:25:40.894Z,37.07
2022-12-01T22:28:14.619Z,33.60
2022-12-01T22:30:41.402Z,34.00
2022-12-01T22:33:14.940Z,30.00
2022-12-01T22:35:45.949Z,31.80
2022-12-01T22:38:20.543Z,33.57
2022-12-01T22:40:58.003Z,31.07
2022-12-01T22:43:38.903Z,38.13
2022-12-01T22:46:16.535Z,33.27
2022-12-01T22:48:47.662Z,32.10
2022-12-01T22:51:14.204Z,31.47
2022-12-01T22:53:41.208Z,34.23
2022-12-01T22:56:20.867Z,35.20
2022-12-01T22:58:47.517Z,33.50
2022-12-01T23:01:20.621Z,32.60
2022-12-01T23:03:48.242Z,35.37
2022-12-01T23:06:33.676Z,34.60
2022-12-01T23:09:00.204Z,32.83
2022-12-01T23:11:26.757Z,32.90
2022-12-01T23:13:53.613Z,34.80
2022-12-01T23:16:20.418Z,37.40
2022-12-01T23:18:47.204Z,30.50
2022-12-01T23:21:15.546Z,31.40
2022-12-01T23:23:42.116Z,30.13
2022-12-01T23:26:08.702Z,29.70
2022-12-01T23:28:36.631Z,30.90
2022-12-01T23:31:03.273Z,34.07
2022-12-01T23:33:31.191Z,34.70
2022-12-01T23:35:59.266Z,32.53
2022-12-01T23:38:37.458Z,33.07
2022-12-01T23:41:08.358Z,31.30
2022-12-01T23:43:38.140Z,31.70
2022-12-01T23:46:11.288Z,34.43
2022-12-01T23:48:41.517Z,31.00
2022-12-01T23:51:20.460Z,33.40
2022-12-01T23:53:47.116Z,33.40
2022-12-01T23:56:16.675Z,35.10
2022-12-01T23:58:43.881Z,32.30
